createdAt,value
2019-05-18T00:02:51.859Z,11.30
2019-05-18T00:08:56.087Z,11.30
2019-05-18T00:15:00.399Z,11.20
2019-05-18T00:21:04.638Z,11.30
2019-05-18T00:27:08.853Z,11.20
2019-05-18T00:33:13.161Z,11.20
2019-05-18T00:39:17.437Z,11.20
2019-05-18T00:45:21.683Z,11.10
2019-05-18T00:51:25.917Z,11.00
2019-05-18T00:57:30.249Z,11.00
2019-05-18T01:03:34.458Z,10.80
2019-05-18T01:09:38.889Z,10.80
2019-05-18T01:15:43.097Z,10.70
2019-05-18T01:21:47.330Z,10.60
2019-05-18T01:27:51.556Z,10.50
2019-05-18T01:33:55.852Z,10.40
2019-05-18T01:40:00.141Z,10.40
2019-05-18T01:46:04.463Z,10.40
2019-05-18T01:52:08.686Z,10.40
2019-05-18T01:58:13.044Z,10.40
2019-05-18T02:04:17.252Z,10.50
2019-05-18T02:10:21.476Z,10.40
2019-05-18T02:16:25.750Z,10.40
2019-05-18T02:22:32.742Z,10.40
2019-05-18T02:28:36.948Z,10.40
2019-05-18T02:34:41.155Z,10.30
2019-05-18T02:40:46.457Z,10.30
2019-05-18T02:46:50.811Z,10.30
2019-05-18T02:52:55.039Z,10.40
2019-05-18T02:58:59.226Z,10.40
2019-05-18T03:05:03.812Z,10.50
2019-05-18T03:11:08.205Z,10.40
2019-05-18T03:17:12.433Z,10.40
2019-05-18T03:23:16.814Z,10.40
2019-05-18T03:29:21.006Z,10.40
2019-05-18T03:35:25.385Z,10.40
2019-05-18T03:41:29.598Z,10.40
2019-05-18T03:47:33.914Z,10.40
2019-05-18T03:53:38.333Z,10.40
2019-05-18T03:59:42.619Z,10.40
2019-05-18T04:05:46.857Z,10.40
2019-05-18T04:11:51.067Z,10.40
2019-05-18T04:17:55.286Z,10.50
2019-05-18T04:23:59.628Z,10.50
2019-05-18T04:30:03.922Z,10.40
2019-05-18T04:36:08.223Z,10.50
2019-05-18T04:42:12.431Z,10.60
2019-05-18T04:48:16.718Z,10.60
2019-05-18T04:54:20.956Z,10.60
2019-05-18T05:00:25.259Z,10.60
2019-05-18T05:06:29.568Z,10.70
2019-05-18T05:12:33.887Z,10.70
2019-05-18T05:18:38.133Z,10.90
2019-05-18T05:24:42.407Z,11.00
2019-05-18T05:30:46.672Z,11.40
2019-05-18T05:36:50.864Z,11.50
2019-05-18T05:42:55.382Z,11.60
2019-05-18T05:48:59.970Z,11.80
2019-05-18T05:55:04.394Z,12.20
2019-05-18T06:01:08.618Z,12.90
2019-05-18T06:07:12.912Z,13.50
2019-05-18T06:13:17.141Z,13.90
2019-05-18T06:19:21.518Z,13.90
2019-05-18T06:25:25.765Z,14.20
2019-05-18T06:31:30.004Z,14.80
2019-05-18T06:37:34.205Z,14.90
2019-05-18T06:43:38.400Z,15.50
2019-05-18T06:49:42.840Z,15.90
2019-05-18T06:55:47.057Z,15.90
2019-05-18T07:01:51.239Z,16.30
2019-05-18T07:07:58.673Z,16.70
2019-05-18T07:14:02.894Z,17.10
2019-05-18T07:20:07.625Z,17.10
2019-05-18T07:26:11.846Z,17.70
2019-05-18T07:32:16.128Z,17.70
2019-05-18T07:38:20.417Z,18.00
2019-05-18T07:44:24.731Z,18.40
2019-05-18T07:50:29.058Z,18.90
2019-05-18T07:56:33.359Z,19.40
2019-05-18T08:02:37.659Z,18.80
2019-05-18T08:08:41.879Z,19.10
2019-05-18T08:14:46.189Z,19.40
2019-05-18T08:20:50.479Z,19.30
2019-05-18T08:26:54.720Z,19.90
2019-05-18T08:32:59.025Z,19.70
2019-05-18T08:39:04.130Z,20.50
2019-05-18T08:45:08.907Z,20.60
2019-05-18T08:51:13.119Z,19.90
2019-05-18T08:57:17.474Z,21.00
2019-05-18T09:03:21.715Z,20.80
2019-05-18T09:09:26.091Z,20.30
2019-05-18T09:15:30.336Z,20.50
2019-05-18T09:21:34.635Z,20.50
2019-05-18T09:27:38.883Z,20.80
2019-05-18T09:33:43.256Z,19.80
2019-05-18T09:39:47.458Z,19.60
2019-05-18T09:45:51.757Z,19.80
2019-05-18T09:51:55.998Z,20.10
2019-05-18T09:58:00.273Z,20.20
2019-05-18T10:04:04.579Z,20.20
2019-05-18T10:10:09.423Z,21.00
2019-05-18T10:16:13.651Z,20.90
2019-05-18T10:22:17.943Z,20.10
2019-05-18T10:28:22.222Z,20.50
2019-05-18T10:34:26.490Z,20.10
2019-05-18T10:40:30.684Z,20.20
2019-05-18T10:46:34.884Z,20.70
2019-05-18T10:52:39.180Z,19.90
2019-05-18T10:58:43.380Z,19.90
2019-05-18T11:04:47.754Z,20.00
2019-05-18T11:10:51.962Z,20.10
2019-05-18T11:16:56.226Z,20.00
2019-05-18T11:23:00.399Z,20.70
2019-05-18T11:29:04.885Z,20.50
2019-05-18T11:35:10.693Z,20.70
2019-05-18T11:41:14.872Z,21.50
2019-05-18T11:47:19.133Z,20.40
2019-05-18T11:53:23.347Z,20.20
2019-05-18T11:59:27.704Z,20.70
2019-05-18T12:05:32.103Z,21.30
2019-05-18T12:11:36.302Z,21.30
2019-05-18T12:17:40.612Z,20.40
2019-05-18T12:23:44.981Z,20.30
2019-05-18T12:29:49.583Z,20.90
2019-05-18T12:35:53.921Z,21.30
2019-05-18T12:41:58.179Z,21.40
2019-05-18T12:48:02.486Z,20.90
2019-05-18T12:54:06.707Z,20.50
2019-05-18T13:00:12.718Z,21.00
2019-05-18T13:06:17.899Z,20.70
2019-05-18T13:12:22.140Z,20.90
2019-05-18T13:18:26.541Z,20.70
2019-05-18T13:24:44.229Z,20.80
2019-05-18T13:30:36.781Z,21.60
2019-05-18T13:36:41.006Z,21.80
2019-05-18T13:42:45.269Z,21.20
2019-05-18T13:48:49.565Z,21.30
2019-05-18T13:55:03.510Z,21.10
2019-05-18T14:00:59.847Z,21.00
2019-05-18T14:07:04.137Z,21.20
2019-05-18T14:13:08.542Z,21.00
2019-05-18T14:19:12.733Z,21.10
2019-05-18T14:25:19.683Z,21.60
2019-05-18T14:31:23.156Z,21.70
2019-05-18T14:37:27.897Z,21.10
2019-05-18T14:43:32.473Z,21.00
2019-05-18T14:49:36.691Z,20.90
2019-05-18T14:55:41.051Z,21.20
2019-05-18T15:01:45.256Z,20.80
2019-05-18T15:07:49.623Z,20.90
2019-05-18T15:13:53.881Z,20.30
2019-05-18T15:19:58.123Z,20.40
2019-05-18T15:26:02.416Z,19.80
2019-05-18T15:32:06.695Z,19.80
2019-05-18T15:38:10.913Z,19.90
2019-05-18T15:44:15.133Z,19.90
2019-05-18T15:50:20.331Z,19.90
2019-05-18T15:56:24.581Z,19.70
2019-05-18T16:02:28.771Z,19.70
2019-05-18T16:08:33.306Z,19.60
2019-05-18T16:14:37.497Z,19.50
2019-05-18T16:20:41.764Z,19.20
2019-05-18T16:26:46.026Z,19.00
2019-05-18T16:32:50.337Z,18.70
2019-05-18T16:38:54.590Z,18.60
2019-05-18T16:44:58.924Z,18.60
2019-05-18T16:51:03.169Z,18.50
2019-05-18T16:57:07.487Z,18.30
2019-05-18T17:03:11.741Z,18.40
2019-05-18T17:09:16.028Z,18.40
2019-05-18T17:15:20.481Z,18.20
2019-05-18T17:21:24.713Z,18.20
2019-05-18T17:27:28.922Z,18.10
2019-05-18T17:33:33.326Z,18.10
2019-05-18T17:39:37.624Z,17.90
2019-05-18T17:45:41.841Z,17.90
2019-05-18T17:51:46.099Z,17.70
2019-05-18T17:57:50.586Z,17.40
2019-05-18T18:03:54.936Z,17.20
2019-05-18T18:09:59.145Z,17.10
2019-05-18T18:16:03.594Z,16.90
2019-05-18T18:22:07.851Z,16.90
2019-05-18T18:28:12.118Z,17.00
2019-05-18T18:34:16.361Z,16.80
2019-05-18T18:40:20.711Z,16.60
2019-05-18T18:46:24.954Z,16.60
2019-05-18T18:52:29.372Z,16.40
2019-05-18T18:58:33.622Z,16.30
2019-05-18T19:04:37.894Z,16.20
2019-05-18T19:10:42.196Z,16.10
2019-05-18T19:16:46.482Z,15.90
2019-05-18T19:22:50.711Z,15.80
2019-05-18T19:28:54.949Z,15.50
2019-05-18T19:34:59.179Z,15.50
2019-05-18T19:41:03.569Z,15.30
2019-05-18T19:47:07.843Z,15.30
2019-05-18T19:53:12.079Z,15.20
2019-05-18T19:59:16.404Z,15.10
2019-05-18T20:05:20.631Z,15.10
2019-05-18T20:11:25.178Z,14.80
2019-05-18T20:17:29.468Z,14.60
2019-05-18T20:23:34.009Z,14.60
2019-05-18T20:29:38.363Z,14.50
2019-05-18T20:35:42.585Z,14.40
2019-05-18T20:41:46.955Z,14.40
2019-05-18T20:47:51.478Z,14.30
2019-05-18T20:53:55.800Z,14.30
2019-05-18T21:00:00.024Z,14.20
2019-05-18T21:06:04.320Z,14.10
2019-05-18T21:12:08.653Z,14.10
2019-05-18T21:18:13.052Z,14.00
2019-05-18T21:24:17.355Z,14.00
2019-05-18T21:30:21.703Z,13.90
2019-05-18T21:36:26.223Z,13.90
2019-05-18T21:42:30.540Z,13.80
2019-05-18T21:48:34.827Z,13.80
2019-05-18T21:54:39.064Z,13.80
2019-05-18T22:00:44.480Z,13.70
2019-05-18T22:06:48.812Z,13.70
2019-05-18T22:12:53.146Z,13.60
2019-05-18T22:18:57.399Z,13.60
2019-05-18T22:25:01.688Z,13.50
2019-05-18T22:31:06.126Z,13.50
2019-05-18T22:37:10.465Z,13.40
2019-05-18T22:43:14.669Z,13.50
2019-05-18T22:49:18.959Z,13.20
2019-05-18T22:55:23.198Z,13.00
2019-05-18T23:01:27.422Z,13.00
2019-05-18T23:07:31.980Z,13.00
2019-05-18T23:13:36.275Z,12.90
2019-05-18T23:19:40.528Z,12.90
2019-05-18T23:25:44.756Z,12.80
2019-05-18T23:31:49.048Z,12.70
2019-05-18T23:37:53.447Z,12.70
2019-05-18T23:43:57.647Z,12.50
2019-05-18T23:50:02.021Z,12.50
2019-05-18T23:56:06.272Z,12.40
